sensor_id;sensor_type;location;lat;lon;timestamp;P1;durP1;ratioP1;P2;durP2;ratioP2
26082;SDS011;13848;49.018;12.078;2023-03-14T00:01:07;2.38;;;0.70;;
26082;SDS011;13848;49.018;12.078;2023-03-14T00:03:35;0.90;;;0.60;;
26082;SDS011;13848;49.018;12.078;2023-03-14T00:06:01;0.90;;;0.80;;
26082;SDS011;13848;49.018;12.078;2023-03-14T00:08:29;1.77;;;0.80;;
26082;SDS011;13848;49.018;12.078;2023-03-14T00:10:55;2.40;;;0.80;;
26082;SDS011;13848;49.018;12.078;2023-03-14T00:13:20;1.35;;;0.70;;
26082;SDS011;13848;49.018;12.078;2023-03-14T00:15:46;1.00;;;0.60;;
26082;SDS011;13848;49.018;12.078;2023-03-14T00:18:12;1.98;;;0.80;;
26082;SDS011;13848;49.018;12.078;2023-03-14T00:20:38;3.85;;;2.00;;
26082;SDS011;13848;49.018;12.078;2023-03-14T00:23:04;3.15;;;2.00;;
26082;SDS011;13848;49.018;12.078;2023-03-14T00:25:31;6.75;;;3.28;;
26082;SDS011;13848;49.018;12.078;2023-03-14T00:27:57;4.85;;;2.45;;
26082;SDS011;13848;49.018;12.078;2023-03-14T00:30:23;1.92;;;1.00;;
26082;SDS011;13848;49.018;12.078;2023-03-14T00:32:49;1.02;;;0.70;;
26082;SDS011;13848;49.018;12.078;2023-03-14T00:35:15;1.85;;;0.82;;
26082;SDS011;13848;49.018;12.078;2023-03-14T00:37:41;1.48;;;0.80;;
26082;SDS011;13848;49.018;12.078;2023-03-14T00:40:08;1.00;;;0.60;;
26082;SDS011;13848;49.018;12.078;2023-03-14T00:42:36;1.15;;;0.50;;
26082;SDS011;13848;49.018;12.078;2023-03-14T00:45:02;0.50;;;0.45;;
26082;SDS011;13848;49.018;12.078;2023-03-14T00:47:29;0.57;;;0.50;;
26082;SDS011;13848;49.018;12.078;2023-03-14T00:49:55;0.85;;;0.60;;
26082;SDS011;13848;49.018;12.078;2023-03-14T00:52:20;2.25;;;0.68;;
26082;SDS011;13848;49.018;12.078;2023-03-14T00:54:46;1.75;;;0.70;;
26082;SDS011;13848;49.018;12.078;2023-03-14T00:57:12;1.45;;;0.80;;
26082;SDS011;13848;49.018;12.078;2023-03-14T00:59:40;5.70;;;1.02;;
26082;SDS011;13848;49.018;12.078;2023-03-14T01:02:06;2.55;;;0.85;;
26082;SDS011;13848;49.018;12.078;2023-03-14T01:04:32;2.83;;;0.70;;
26082;SDS011;13848;49.018;12.078;2023-03-14T01:06:58;1.33;;;0.80;;
26082;SDS011;13848;49.018;12.078;2023-03-14T01:09:24;0.93;;;0.68;;
26082;SDS011;13848;49.018;12.078;2023-03-14T01:11:50;1.00;;;0.80;;
26082;SDS011;13848;49.018;12.078;2023-03-14T01:14:16;1.90;;;0.63;;
26082;SDS011;13848;49.018;12.078;2023-03-14T01:16:43;0.70;;;0.60;;
26082;SDS011;13848;49.018;12.078;2023-03-14T01:19:09;1.38;;;0.70;;
26082;SDS011;13848;49.018;12.078;2023-03-14T01:21:35;2.38;;;0.68;;
26082;SDS011;13848;49.018;12.078;2023-03-14T01:24:02;1.27;;;0.65;;
26082;SDS011;13848;49.018;12.078;2023-03-14T01:26:30;2.22;;;0.82;;
26082;SDS011;13848;49.018;12.078;2023-03-14T01:28:57;4.07;;;0.70;;
26082;SDS011;13848;49.018;12.078;2023-03-14T01:31:24;0.73;;;0.70;;
26082;SDS011;13848;49.018;12.078;2023-03-14T01:33:52;2.78;;;0.60;;
26082;SDS011;13848;49.018;12.078;2023-03-14T01:36:18;1.92;;;0.80;;
26082;SDS011;13848;49.018;12.078;2023-03-14T01:38:44;1.63;;;0.82;;
26082;SDS011;13848;49.018;12.078;2023-03-14T01:41:12;1.23;;;0.60;;
26082;SDS011;13848;49.018;12.078;2023-03-14T01:43:39;1.08;;;0.60;;
26082;SDS011;13848;49.018;12.078;2023-03-14T01:46:12;1.95;;;0.80;;
26082;SDS011;13848;49.018;12.078;2023-03-14T01:48:46;4.03;;;0.70;;
26082;SDS011;13848;49.018;12.078;2023-03-14T01:51:19;1.55;;;0.70;;
26082;SDS011;13848;49.018;12.078;2023-03-14T01:53:54;0.70;;;0.50;;
26082;SDS011;13848;49.018;12.078;2023-03-14T01:56:35;3.13;;;0.75;;
26082;SDS011;13848;49.018;12.078;2023-03-14T01:59:04;2.58;;;0.52;;
26082;SDS011;13848;49.018;12.078;2023-03-14T02:01:33;1.42;;;0.85;;
26082;SDS011;13848;49.018;12.078;2023-03-14T02:04:01;15.20;;;0.88;;
26082;SDS011;13848;49.018;12.078;2023-03-14T02:06:33;2.42;;;0.60;;
26082;SDS011;13848;49.018;12.078;2023-03-14T02:09:06;1.90;;;0.50;;
26082;SDS011;13848;49.018;12.078;2023-03-14T02:11:32;0.50;;;0.50;;
26082;SDS011;13848;49.018;12.078;2023-03-14T02:13:58;0.70;;;0.60;;
26082;SDS011;13848;49.018;12.078;2023-03-14T02:16:25;0.30;;;0.30;;
26082;SDS011;13848;49.018;12.078;2023-03-14T02:18:51;0.45;;;0.40;;
26082;SDS011;13848;49.018;12.078;2023-03-14T02:21:18;0.40;;;0.40;;
26082;SDS011;13848;49.018;12.078;2023-03-14T02:23:53;0.30;;;0.30;;
26082;SDS011;13848;49.018;12.078;2023-03-14T02:26:28;0.50;;;0.50;;
26082;SDS011;13848;49.018;12.078;2023-03-14T02:29:03;0.77;;;0.22;;
26082;SDS011;13848;49.018;12.078;2023-03-14T02:31:29;0.30;;;0.30;;
26082;SDS011;13848;49.018;12.078;2023-03-14T02:33:55;0.30;;;0.30;;
26082;SDS011;13848;49.018;12.078;2023-03-14T02:36:23;0.52;;;0.30;;
26082;SDS011;13848;49.018;12.078;2023-03-14T02:38:50;0.22;;;0.22;;
26082;SDS011;13848;49.018;12.078;2023-03-14T02:41:22;0.30;;;0.30;;
26082;SDS011;13848;49.018;12.078;2023-03-14T02:43:48;0.30;;;0.30;;
26082;SDS011;13848;49.018;12.078;2023-03-14T02:46:16;0.52;;;0.30;;
26082;SDS011;13848;49.018;12.078;2023-03-14T02:48:45;0.25;;;0.25;;
26082;SDS011;13848;49.018;12.078;2023-03-14T02:51:13;0.38;;;0.32;;
26082;SDS011;13848;49.018;12.078;2023-03-14T02:53:40;0.20;;;0.20;;
26082;SDS011;13848;49.018;12.078;2023-03-14T02:56:07;1.90;;;0.35;;
26082;SDS011;13848;49.018;12.078;2023-03-14T02:58:33;0.50;;;0.25;;
26082;SDS011;13848;49.018;12.078;2023-03-14T03:00:59;1.25;;;0.30;;
26082;SDS011;13848;49.018;12.078;2023-03-14T03:03:27;0.82;;;0.30;;
26082;SDS011;13848;49.018;12.078;2023-03-14T03:05:54;0.50;;;0.40;;
26082;SDS011;13848;49.018;12.078;2023-03-14T03:08:22;3.70;;;0.40;;
26082;SDS011;13848;49.018;12.078;2023-03-14T03:10:50;0.38;;;0.38;;
26082;SDS011;13848;49.018;12.078;2023-03-14T03:13:16;3.00;;;0.38;;
26082;SDS011;13848;49.018;12.078;2023-03-14T03:15:43;0.47;;;0.40;;
26082;SDS011;13848;49.018;12.078;2023-03-14T03:18:10;1.17;;;0.55;;
26082;SDS011;13848;49.018;12.078;2023-03-14T03:20:37;0.85;;;0.40;;
26082;SDS011;13848;49.018;12.078;2023-03-14T03:23:15;1.38;;;0.57;;
26082;SDS011;13848;49.018;12.078;2023-03-14T03:25:41;3.50;;;0.60;;
26082;SDS011;13848;49.018;12.078;2023-03-14T03:28:07;0.30;;;0.30;;
26082;SDS011;13848;49.018;12.078;2023-03-14T03:30:36;0.30;;;0.30;;
26082;SDS011;13848;49.018;12.078;2023-03-14T03:33:03;0.95;;;0.45;;
26082;SDS011;13848;49.018;12.078;2023-03-14T03:35:29;0.47;;;0.40;;
26082;SDS011;13848;49.018;12.078;2023-03-14T03:37:56;1.15;;;0.47;;
26082;SDS011;13848;49.018;12.078;2023-03-14T03:40:22;3.03;;;0.40;;
26082;SDS011;13848;49.018;12.078;2023-03-14T03:42:48;1.40;;;0.50;;
26082;SDS011;13848;49.018;12.078;2023-03-14T03:45:14;0.80;;;0.40;;
26082;SDS011;13848;49.018;12.078;2023-03-14T03:47:40;3.83;;;0.40;;
26082;SDS011;13848;49.018;12.078;2023-03-14T03:50:06;1.60;;;0.45;;
26082;SDS011;13848;49.018;12.078;2023-03-14T03:52:32;1.40;;;0.40;;
26082;SDS011;13848;49.018;12.078;2023-03-14T03:55:00;0.47;;;0.47;;
26082;SDS011;13848;49.018;12.078;2023-03-14T03:57:26;1.05;;;0.55;;
26082;SDS011;13848;49.018;12.078;2023-03-14T03:59:52;0.88;;;0.60;;
26082;SDS011;13848;49.018;12.078;2023-03-14T04:02:17;0.22;;;0.22;;
26082;SDS011;13848;49.018;12.078;2023-03-14T04:04:43;1.30;;;0.35;;
26082;SDS011;13848;49.018;12.078;2023-03-14T04:07:09;0.40;;;0.40;;
26082;SDS011;13848;49.018;12.078;2023-03-14T04:09:37;0.30;;;0.30;;
26082;SDS011;13848;49.018;12.078;2023-03-14T04:12:04;0.40;;;0.40;;
26082;SDS011;13848;49.018;12.078;2023-03-14T04:14:30;0.65;;;0.50;;
26082;SDS011;13848;49.018;12.078;2023-03-14T04:16:56;0.85;;;0.30;;
26082;SDS011;13848;49.018;12.078;2023-03-14T04:19:22;0.40;;;0.40;;
26082;SDS011;13848;49.018;12.078;2023-03-14T04:21:48;0.30;;;0.30;;
26082;SDS011;13848;49.018;12.078;2023-03-14T04:24:14;1.65;;;0.40;;
26082;SDS011;13848;49.018;12.078;2023-03-14T04:26:40;0.40;;;0.40;;
26082;SDS011;13848;49.018;12.078;2023-03-14T04:29:07;1.25;;;0.30;;
26082;SDS011;13848;49.018;12.078;2023-03-14T04:31:33;1.42;;;0.40;;
26082;SDS011;13848;49.018;12.078;2023-03-14T04:33:59;0.75;;;0.75;;
26082;SDS011;13848;49.018;12.078;2023-03-14T04:36:25;1.23;;;0.30;;
26082;SDS011;13848;49.018;12.078;2023-03-14T04:38:51;1.25;;;0.40;;
26082;SDS011;13848;49.018;12.078;2023-03-14T04:41:17;1.80;;;0.40;;
26082;SDS011;13848;49.018;12.078;2023-03-14T04:43:43;2.72;;;0.50;;
26082;SDS011;13848;49.018;12.078;2023-03-14T04:46:10;0.73;;;0.40;;
26082;SDS011;13848;49.018;12.078;2023-03-14T04:48:36;0.30;;;0.30;;
26082;SDS011;13848;49.018;12.078;2023-03-14T04:51:02;0.88;;;0.30;;
26082;SDS011;13848;49.018;12.078;2023-03-14T04:53:28;3.25;;;0.40;;
26082;SDS011;13848;49.018;12.078;2023-03-14T04:55:55;0.88;;;0.47;;
26082;SDS011;13848;49.018;12.078;2023-03-14T04:58:21;0.57;;;0.30;;
26082;SDS011;13848;49.018;12.078;2023-03-14T05:00:48;1.15;;;0.50;;
26082;SDS011;13848;49.018;12.078;2023-03-14T05:03:15;3.35;;;0.35;;
26082;SDS011;13848;49.018;12.078;2023-03-14T05:05:42;0.73;;;0.40;;
26082;SDS011;13848;49.018;12.078;2023-03-14T05:08:08;0.68;;;0.40;;
26082;SDS011;13848;49.018;12.078;2023-03-14T05:10:34;1.42;;;0.68;;
26082;SDS011;13848;49.018;12.078;2023-03-14T05:13:00;0.38;;;0.38;;
26082;SDS011;13848;49.018;12.078;2023-03-14T05:15:26;0.32;;;0.32;;
26082;SDS011;13848;49.018;12.078;2023-03-14T05:17:52;0.93;;;0.50;;
26082;SDS011;13848;49.018;12.078;2023-03-14T05:20:20;0.60;;;0.40;;
26082;SDS011;13848;49.018;12.078;2023-03-14T05:22:46;0.40;;;0.40;;
26082;SDS011;13848;49.018;12.078;2023-03-14T05:25:12;0.50;;;0.45;;
26082;SDS011;13848;49.018;12.078;2023-03-14T05:27:38;0.60;;;0.50;;
26082;SDS011;13848;49.018;12.078;2023-03-14T05:30:04;0.60;;;0.60;;
26082;SDS011;13848;49.018;12.078;2023-03-14T05:32:31;1.30;;;0.50;;
26082;SDS011;13848;49.018;12.078;2023-03-14T05:34:57;0.47;;;0.45;;
26082;SDS011;13848;49.018;12.078;2023-03-14T05:37:25;3.10;;;0.60;;
26082;SDS011;13848;49.018;12.078;2023-03-14T05:39:51;1.27;;;0.60;;
26082;SDS011;13848;49.018;12.078;2023-03-14T05:42:17;2.17;;;0.70;;
26082;SDS011;13848;49.018;12.078;2023-03-14T05:44:43;1.75;;;0.82;;
26082;SDS011;13848;49.018;12.078;2023-03-14T05:47:09;0.98;;;0.60;;
26082;SDS011;13848;49.018;12.078;2023-03-14T05:49:35;1.27;;;0.60;;
26082;SDS011;13848;49.018;12.078;2023-03-14T05:52:01;1.92;;;0.65;;
26082;SDS011;13848;49.018;12.078;2023-03-14T05:54:28;2.67;;;1.00;;
26082;SDS011;13848;49.018;12.078;2023-03-14T05:56:54;1.20;;;0.63;;
26082;SDS011;13848;49.018;12.078;2023-03-14T05:59:20;1.67;;;0.63;;
26082;SDS011;13848;49.018;12.078;2023-03-14T06:01:46;1.95;;;0.63;;
26082;SDS011;13848;49.018;12.078;2023-03-14T06:04:12;0.57;;;0.57;;
26082;SDS011;13848;49.018;12.078;2023-03-14T06:06:38;0.85;;;0.50;;
26082;SDS011;13848;49.018;12.078;2023-03-14T06:09:04;0.52;;;0.50;;
26082;SDS011;13848;49.018;12.078;2023-03-14T06:11:31;1.92;;;0.70;;
26082;SDS011;13848;49.018;12.078;2023-03-14T06:13:57;0.82;;;0.70;;
26082;SDS011;13848;49.018;12.078;2023-03-14T06:16:23;1.15;;;0.70;;
26082;SDS011;13848;49.018;12.078;2023-03-14T06:18:49;1.15;;;0.52;;
26082;SDS011;13848;49.018;12.078;2023-03-14T06:21:15;1.33;;;0.40;;
26082;SDS011;13848;49.018;12.078;2023-03-14T06:23:41;3.22;;;0.60;;
26082;SDS011;13848;49.018;12.078;2023-03-14T06:26:07;1.85;;;0.50;;
26082;SDS011;13848;49.018;12.078;2023-03-14T06:28:34;0.77;;;0.68;;
26082;SDS011;13848;49.018;12.078;2023-03-14T06:31:00;1.08;;;0.60;;
26082;SDS011;13848;49.018;12.078;2023-03-14T06:33:26;0.90;;;0.60;;
26082;SDS011;13848;49.018;12.078;2023-03-14T06:35:52;2.58;;;0.50;;
26082;SDS011;13848;49.018;12.078;2023-03-14T06:38:21;1.48;;;0.80;;
26082;SDS011;13848;49.018;12.078;2023-03-14T06:40:47;1.50;;;0.57;;
26082;SDS011;13848;49.018;12.078;2023-03-14T06:43:13;0.85;;;0.68;;
26082;SDS011;13848;49.018;12.078;2023-03-14T06:45:40;0.40;;;0.40;;
26082;SDS011;13848;49.018;12.078;2023-03-14T06:48:06;2.42;;;0.70;;
26082;SDS011;13848;49.018;12.078;2023-03-14T06:50:32;1.25;;;0.88;;
26082;SDS011;13848;49.018;12.078;2023-03-14T06:52:58;0.75;;;0.50;;
26082;SDS011;13848;49.018;12.078;2023-03-14T06:55:24;1.05;;;0.43;;
26082;SDS011;13848;49.018;12.078;2023-03-14T06:57:50;1.15;;;0.50;;
26082;SDS011;13848;49.018;12.078;2023-03-14T07:00:16;0.80;;;0.65;;
26082;SDS011;13848;49.018;12.078;2023-03-14T07:02:44;2.67;;;0.98;;
26082;SDS011;13848;49.018;12.078;2023-03-14T07:05:10;1.25;;;0.60;;
26082;SDS011;13848;49.018;12.078;2023-03-14T07:07:36;1.63;;;0.70;;
26082;SDS011;13848;49.018;12.078;2023-03-14T07:10:02;0.40;;;0.40;;
26082;SDS011;13848;49.018;12.078;2023-03-14T07:12:28;0.75;;;0.60;;
26082;SDS011;13848;49.018;12.078;2023-03-14T07:14:54;3.35;;;0.60;;
26082;SDS011;13848;49.018;12.078;2023-03-14T07:17:20;0.50;;;0.50;;
26082;SDS011;13848;49.018;12.078;2023-03-14T07:19:47;0.45;;;0.45;;
26082;SDS011;13848;49.018;12.078;2023-03-14T07:22:13;1.05;;;0.68;;
26082;SDS011;13848;49.018;12.078;2023-03-14T07:24:39;1.58;;;0.68;;
26082;SDS011;13848;49.018;12.078;2023-03-14T07:27:05;1.17;;;0.60;;
26082;SDS011;13848;49.018;12.078;2023-03-14T07:29:30;0.98;;;0.45;;
26082;SDS011;13848;49.018;12.078;2023-03-14T07:31:56;1.13;;;0.77;;
26082;SDS011;13848;49.018;12.078;2023-03-14T07:34:22;1.27;;;0.70;;
26082;SDS011;13848;49.018;12.078;2023-03-14T07:36:49;1.48;;;0.52;;
26082;SDS011;13848;49.018;12.078;2023-03-14T07:39:15;1.33;;;0.52;;
26082;SDS011;13848;49.018;12.078;2023-03-14T07:41:41;1.20;;;0.70;;
26082;SDS011;13848;49.018;12.078;2023-03-14T07:44:07;1.45;;;0.60;;
26082;SDS011;13848;49.018;12.078;2023-03-14T07:46:33;0.65;;;0.52;;
26082;SDS011;13848;49.018;12.078;2023-03-14T07:48:59;1.20;;;0.70;;
26082;SDS011;13848;49.018;12.078;2023-03-14T07:51:25;1.58;;;0.60;;
26082;SDS011;13848;49.018;12.078;2023-03-14T07:53:52;1.27;;;0.70;;
26082;SDS011;13848;49.018;12.078;2023-03-14T07:56:18;0.63;;;0.60;;
26082;SDS011;13848;49.018;12.078;2023-03-14T07:58:44;1.63;;;0.52;;
26082;SDS011;13848;49.018;12.078;2023-03-14T08:01:10;0.73;;;0.50;;
26082;SDS011;13848;49.018;12.078;2023-03-14T08:03:35;1.63;;;0.60;;
26082;SDS011;13848;49.018;12.078;2023-03-14T08:06:01;1.80;;;0.63;;
26082;SDS011;13848;49.018;12.078;2023-03-14T08:08:27;1.92;;;0.60;;
26082;SDS011;13848;49.018;12.078;2023-03-14T08:10:55;0.65;;;0.60;;
26082;SDS011;13848;49.018;12.078;2023-03-14T08:13:21;0.90;;;0.55;;
26082;SDS011;13848;49.018;12.078;2023-03-14T08:15:47;0.98;;;0.73;;
26082;SDS011;13848;49.018;12.078;2023-03-14T08:18:13;1.00;;;0.65;;
26082;SDS011;13848;49.018;12.078;2023-03-14T08:20:39;2.10;;;0.95;;
26082;SDS011;13848;49.018;12.078;2023-03-14T08:23:05;3.17;;;0.70;;
26082;SDS011;13848;49.018;12.078;2023-03-14T08:25:31;1.60;;;0.50;;
26082;SDS011;13848;49.018;12.078;2023-03-14T08:27:58;2.10;;;0.80;;
26082;SDS011;13848;49.018;12.078;2023-03-14T08:30:24;0.95;;;0.60;;
26082;SDS011;13848;49.018;12.078;2023-03-14T08:32:50;1.08;;;0.50;;
26082;SDS011;13848;49.018;12.078;2023-03-14T08:35:16;1.38;;;0.70;;
26082;SDS011;13848;49.018;12.078;2023-03-14T08:37:42;1.83;;;0.70;;
26082;SDS011;13848;49.018;12.078;2023-03-14T08:40:09;1.92;;;0.75;;
26082;SDS011;13848;49.018;12.078;2023-03-14T08:42:36;0.50;;;0.50;;
26082;SDS011;13848;49.018;12.078;2023-03-14T08:45:04;2.20;;;0.47;;
26082;SDS011;13848;49.018;12.078;2023-03-14T08:47:31;4.53;;;0.60;;
26082;SDS011;13848;49.018;12.078;2023-03-14T08:49:57;0.90;;;0.60;;
26082;SDS011;13848;49.018;12.078;2023-03-14T08:52:23;0.85;;;0.50;;
26082;SDS011;13848;49.018;12.078;2023-03-14T08:54:49;0.50;;;0.50;;
26082;SDS011;13848;49.018;12.078;2023-03-14T08:57:15;0.70;;;0.70;;
26082;SDS011;13848;49.018;12.078;2023-03-14T08:59:41;0.60;;;0.60;;
26082;SDS011;13848;49.018;12.078;2023-03-14T09:02:09;3.15;;;0.80;;
26082;SDS011;13848;49.018;12.078;2023-03-14T09:04:36;0.70;;;0.60;;
26082;SDS011;13848;49.018;12.078;2023-03-14T09:07:02;0.65;;;0.45;;
26082;SDS011;13848;49.018;12.078;2023-03-14T09:09:28;0.52;;;0.50;;
26082;SDS011;13848;49.018;12.078;2023-03-14T09:11:54;2.40;;;0.50;;
26082;SDS011;13848;49.018;12.078;2023-03-14T09:14:20;1.67;;;0.60;;
26082;SDS011;13848;49.018;12.078;2023-03-14T09:16:46;0.73;;;0.52;;
26082;SDS011;13848;49.018;12.078;2023-03-14T09:19:14;0.43;;;0.43;;
26082;SDS011;13848;49.018;12.078;2023-03-14T09:21:40;1.40;;;0.50;;
26082;SDS011;13848;49.018;12.078;2023-03-14T09:24:06;0.68;;;0.50;;
26082;SDS011;13848;49.018;12.078;2023-03-14T09:26:38;4.28;;;0.68;;
26082;SDS011;13848;49.018;12.078;2023-03-14T09:29:04;0.40;;;0.40;;
26082;SDS011;13848;49.018;12.078;2023-03-14T09:31:30;1.27;;;0.55;;
26082;SDS011;13848;49.018;12.078;2023-03-14T09:33:56;1.15;;;0.70;;
26082;SDS011;13848;49.018;12.078;2023-03-14T09:36:23;1.48;;;0.60;;
26082;SDS011;13848;49.018;12.078;2023-03-14T09:38:49;1.90;;;0.82;;
26082;SDS011;13848;49.018;12.078;2023-03-14T09:41:16;0.70;;;0.50;;
26082;SDS011;13848;49.018;12.078;2023-03-14T09:43:46;1.00;;;0.63;;
26082;SDS011;13848;49.018;12.078;2023-03-14T09:46:14;1.33;;;0.60;;
26082;SDS011;13848;49.018;12.078;2023-03-14T09:48:40;0.50;;;0.50;;
26082;SDS011;13848;49.018;12.078;2023-03-14T09:51:10;0.57;;;0.50;;
26082;SDS011;13848;49.018;12.078;2023-03-14T09:53:40;1.80;;;0.70;;
26082;SDS011;13848;49.018;12.078;2023-03-14T09:56:09;3.97;;;0.80;;
26082;SDS011;13848;49.018;12.078;2023-03-14T09:58:40;20.08;;;0.98;;
26082;SDS011;13848;49.018;12.078;2023-03-14T10:01:08;0.98;;;0.57;;
26082;SDS011;13848;49.018;12.078;2023-03-14T10:03:36;0.77;;;0.50;;
26082;SDS011;13848;49.018;12.078;2023-03-14T10:06:03;0.70;;;0.40;;
26082;SDS011;13848;49.018;12.078;2023-03-14T10:08:39;1.52;;;0.63;;
26082;SDS011;13848;49.018;12.078;2023-03-14T10:11:06;1.05;;;0.60;;
26082;SDS011;13848;49.018;12.078;2023-03-14T10:13:32;0.55;;;0.40;;
26082;SDS011;13848;49.018;12.078;2023-03-14T10:15:59;0.85;;;0.55;;
26082;SDS011;13848;49.018;12.078;2023-03-14T10:18:27;0.75;;;0.45;;
26082;SDS011;13848;49.018;12.078;2023-03-14T10:21:04;0.55;;;0.50;;
26082;SDS011;13848;49.018;12.078;2023-03-14T10:23:32;1.00;;;0.40;;
26082;SDS011;13848;49.018;12.078;2023-03-14T10:26:03;0.57;;;0.45;;
26082;SDS011;13848;49.018;12.078;2023-03-14T10:28:32;0.47;;;0.47;;
26082;SDS011;13848;49.018;12.078;2023-03-14T10:30:59;0.45;;;0.38;;
26082;SDS011;13848;49.018;12.078;2023-03-14T10:33:26;1.20;;;0.50;;
26082;SDS011;13848;49.018;12.078;2023-03-14T10:35:54;3.95;;;0.50;;
26082;SDS011;13848;49.018;12.078;2023-03-14T10:38:23;1.60;;;0.60;;
26082;SDS011;13848;49.018;12.078;2023-03-14T10:40:51;1.13;;;0.50;;
26082;SDS011;13848;49.018;12.078;2023-03-14T10:43:22;0.47;;;0.47;;
26082;SDS011;13848;49.018;12.078;2023-03-14T10:45:54;5.97;;;0.50;;
26082;SDS011;13848;49.018;12.078;2023-03-14T10:48:22;1.15;;;0.50;;
26082;SDS011;13848;49.018;12.078;2023-03-14T10:50:56;1.08;;;0.75;;
26082;SDS011;13848;49.018;12.078;2023-03-14T10:53:23;0.52;;;0.40;;
26082;SDS011;13848;49.018;12.078;2023-03-14T10:55:50;0.95;;;0.50;;
26082;SDS011;13848;49.018;12.078;2023-03-14T10:58:24;1.23;;;0.40;;
26082;SDS011;13848;49.018;12.078;2023-03-14T11:00:52;0.95;;;0.55;;
26082;SDS011;13848;49.018;12.078;2023-03-14T11:03:24;1.50;;;0.40;;
26082;SDS011;13848;49.018;12.078;2023-03-14T11:05:55;0.68;;;0.60;;
26082;SDS011;13848;49.018;12.078;2023-03-14T11:08:23;0.40;;;0.40;;
26082;SDS011;13848;49.018;12.078;2023-03-14T11:10:53;0.57;;;0.45;;
26082;SDS011;13848;49.018;12.078;2023-03-14T11:13:25;1.83;;;0.90;;
26082;SDS011;13848;49.018;12.078;2023-03-14T11:15:58;0.75;;;0.50;;
26082;SDS011;13848;49.018;12.078;2023-03-14T11:18:36;0.38;;;0.38;;
26082;SDS011;13848;49.018;12.078;2023-03-14T11:21:23;0.88;;;0.40;;
26082;SDS011;13848;49.018;12.078;2023-03-14T11:24:01;0.52;;;0.47;;
26082;SDS011;13848;49.018;12.078;2023-03-14T11:26:36;1.10;;;0.40;;
26082;SDS011;13848;49.018;12.078;2023-03-14T11:29:11;1.13;;;0.98;;
26082;SDS011;13848;49.018;12.078;2023-03-14T11:31:45;1.80;;;0.50;;
26082;SDS011;13848;49.018;12.078;2023-03-14T11:34:14;1.27;;;0.47;;
26082;SDS011;13848;49.018;12.078;2023-03-14T11:36:44;0.93;;;0.60;;
26082;SDS011;13848;49.018;12.078;2023-03-14T11:39:16;0.85;;;0.30;;
26082;SDS011;13848;49.018;12.078;2023-03-14T11:41:44;0.88;;;0.50;;
26082;SDS011;13848;49.018;12.078;2023-03-14T11:44:14;5.68;;;0.50;;
26082;SDS011;13848;49.018;12.078;2023-03-14T11:46:43;2.47;;;0.50;;
26082;SDS011;13848;49.018;12.078;2023-03-14T11:49:14;0.88;;;0.52;;
26082;SDS011;13848;49.018;12.078;2023-03-14T11:51:49;1.30;;;0.40;;
26082;SDS011;13848;49.018;12.078;2023-03-14T11:54:18;1.05;;;0.57;;
26082;SDS011;13848;49.018;12.078;2023-03-14T11:56:55;0.50;;;0.47;;
26082;SDS011;13848;49.018;12.078;2023-03-14T11:59:27;1.95;;;0.60;;
26082;SDS011;13848;49.018;12.078;2023-03-14T12:01:57;2.17;;;0.55;;
26082;SDS011;13848;49.018;12.078;2023-03-14T12:04:31;1.20;;;0.70;;
26082;SDS011;13848;49.018;12.078;2023-03-14T12:07:07;1.35;;;0.50;;
26082;SDS011;13848;49.018;12.078;2023-03-14T12:09:41;0.60;;;0.40;;
26082;SDS011;13848;49.018;12.078;2023-03-14T12:12:10;2.40;;;0.60;;
26082;SDS011;13848;49.018;12.078;2023-03-14T12:14:45;0.65;;;0.40;;
26082;SDS011;13848;49.018;12.078;2023-03-14T12:17:18;0.80;;;0.68;;
26082;SDS011;13848;49.018;12.078;2023-03-14T12:19:46;0.50;;;0.50;;
26082;SDS011;13848;49.018;12.078;2023-03-14T12:22:23;0.68;;;0.45;;
26082;SDS011;13848;49.018;12.078;2023-03-14T12:24:53;1.15;;;0.45;;
26082;SDS011;13848;49.018;12.078;2023-03-14T12:27:40;0.68;;;0.60;;
26082;SDS011;13848;49.018;12.078;2023-03-14T12:30:16;1.35;;;0.52;;
26082;SDS011;13848;49.018;12.078;2023-03-14T12:35:59;0.85;;;0.40;;
26082;SDS011;13848;49.018;12.078;2023-03-14T12:38:43;0.45;;;0.40;;
26082;SDS011;13848;49.018;12.078;2023-03-14T12:41:15;0.45;;;0.40;;
26082;SDS011;13848;49.018;12.078;2023-03-14T12:43:46;3.10;;;0.57;;
26082;SDS011;13848;49.018;12.078;2023-03-14T12:46:21;0.40;;;0.40;;
26082;SDS011;13848;49.018;12.078;2023-03-14T12:48:49;1.45;;;0.50;;
26082;SDS011;13848;49.018;12.078;2023-03-14T12:51:20;1.33;;;0.50;;
26082;SDS011;13848;49.018;12.078;2023-03-14T12:54:03;1.08;;;0.40;;
26082;SDS011;13848;49.018;12.078;2023-03-14T12:56:49;2.50;;;0.40;;
26082;SDS011;13848;49.018;12.078;2023-03-14T12:59:27;1.40;;;0.52;;
26082;SDS011;13848;49.018;12.078;2023-03-14T13:01:59;0.60;;;0.60;;
26082;SDS011;13848;49.018;12.078;2023-03-14T13:04:27;0.35;;;0.32;;
26082;SDS011;13848;49.018;12.078;2023-03-14T13:06:56;0.40;;;0.40;;
26082;SDS011;13848;49.018;12.078;2023-03-14T13:12:26;0.60;;;0.50;;
26082;SDS011;13848;49.018;12.078;2023-03-14T13:14:54;0.90;;;0.70;;
26082;SDS011;13848;49.018;12.078;2023-03-14T13:17:26;0.50;;;0.50;;
26082;SDS011;13848;49.018;12.078;2023-03-14T13:19:55;0.60;;;0.50;;
26082;SDS011;13848;49.018;12.078;2023-03-14T13:22:25;0.88;;;0.60;;
26082;SDS011;13848;49.018;12.078;2023-03-14T13:24:58;0.88;;;0.57;;
26082;SDS011;13848;49.018;12.078;2023-03-14T13:27:25;0.65;;;0.40;;
26082;SDS011;13848;49.018;12.078;2023-03-14T13:29:51;0.88;;;0.45;;
26082;SDS011;13848;49.018;12.078;2023-03-14T13:32:19;0.60;;;0.43;;
26082;SDS011;13848;49.018;12.078;2023-03-14T13:34:48;1.00;;;0.50;;
26082;SDS011;13848;49.018;12.078;2023-03-14T13:37:15;0.40;;;0.40;;
26082;SDS011;13848;49.018;12.078;2023-03-14T13:39:42;0.32;;;0.32;;
26082;SDS011;13848;49.018;12.078;2023-03-14T13:42:10;0.40;;;0.40;;
26082;SDS011;13848;49.018;12.078;2023-03-14T13:44:40;0.90;;;0.50;;
26082;SDS011;13848;49.018;12.078;2023-03-14T13:47:10;0.80;;;0.50;;
26082;SDS011;13848;49.018;12.078;2023-03-14T13:49:39;0.45;;;0.40;;
26082;SDS011;13848;49.018;12.078;2023-03-14T13:55:00;0.40;;;0.40;;
26082;SDS011;13848;49.018;12.078;2023-03-14T13:57:26;0.40;;;0.40;;
26082;SDS011;13848;49.018;12.078;2023-03-14T13:59:59;0.30;;;0.30;;
26082;SDS011;13848;49.018;12.078;2023-03-14T14:02:26;0.30;;;0.30;;
26082;SDS011;13848;49.018;12.078;2023-03-14T14:04:53;0.68;;;0.40;;
26082;SDS011;13848;49.018;12.078;2023-03-14T14:07:19;0.52;;;0.50;;
26082;SDS011;13848;49.018;12.078;2023-03-14T14:09:46;0.30;;;0.30;;
26082;SDS011;13848;49.018;12.078;2023-03-14T14:12:16;0.30;;;0.30;;
26082;SDS011;13848;49.018;12.078;2023-03-14T14:14:46;1.30;;;0.30;;
26082;SDS011;13848;49.018;12.078;2023-03-14T14:17:17;0.30;;;0.30;;
26082;SDS011;13848;49.018;12.078;2023-03-14T14:19:46;0.73;;;0.38;;
26082;SDS011;13848;49.018;12.078;2023-03-14T14:22:13;0.28;;;0.28;;
26082;SDS011;13848;49.018;12.078;2023-03-14T14:24:40;0.50;;;0.40;;
26082;SDS011;13848;49.018;12.078;2023-03-14T14:27:08;0.35;;;0.30;;
26082;SDS011;13848;49.018;12.078;2023-03-14T14:29:40;0.73;;;0.47;;
26082;SDS011;13848;49.018;12.078;2023-03-14T14:32:10;0.70;;;0.60;;
26082;SDS011;13848;49.018;12.078;2023-03-14T14:34:38;0.77;;;0.70;;
26082;SDS011;13848;49.018;12.078;2023-03-14T14:37:05;0.43;;;0.40;;
26082;SDS011;13848;49.018;12.078;2023-03-14T14:39:40;0.50;;;0.50;;
26082;SDS011;13848;49.018;12.078;2023-03-14T14:42:12;0.50;;;0.50;;
26082;SDS011;13848;49.018;12.078;2023-03-14T14:44:41;1.08;;;0.50;;
26082;SDS011;13848;49.018;12.078;2023-03-14T14:47:11;1.45;;;0.43;;